createdAt,value
2022-08-28T00:02:03.108Z,0.80
2022-08-28T00:04:35.835Z,0.60
2022-08-28T00:07:04.720Z,1.25
2022-08-28T00:09:34.255Z,0.60
2022-08-28T00:12:05.277Z,0.90
2022-08-28T00:14:35.861Z,1.05
2022-08-28T00:17:04.204Z,1.00
2022-08-28T00:19:38.688Z,0.77
2022-08-28T00:22:08.531Z,0.98
2022-08-28T00:24:38.360Z,1.83
2022-08-28T00:27:24.748Z,1.10
2022-08-28T00:29:53.039Z,0.93
2022-08-28T00:32:23.650Z,1.15
2022-08-28T00:34:53.501Z,1.13
2022-08-28T00:37:24.566Z,0.93
2022-08-28T00:39:54.476Z,1.33
2022-08-28T00:42:24.328Z,1.00
2022-08-28T00:44:54.807Z,1.58
2022-08-28T00:47:26.557Z,1.42
2022-08-28T00:49:56.370Z,1.23
2022-08-28T00:52:25.637Z,1.23
2022-08-28T00:55:02.666Z,0.90
2022-08-28T00:57:36.777Z,1.17
2022-08-28T01:00:11.011Z,1.48
2022-08-28T01:02:52.300Z,1.10
2022-08-28T01:05:21.396Z,1.75
2022-08-28T01:07:50.956Z,2.03
2022-08-28T01:10:24.204Z,1.50
2022-08-28T01:12:54.764Z,1.58
2022-08-28T01:15:27.437Z,1.73
2022-08-28T01:18:03.575Z,1.35
2022-08-28T01:20:36.402Z,1.50
2022-08-28T01:23:13.985Z,1.90
2022-08-28T01:25:42.697Z,1.63
2022-08-28T01:28:13.328Z,1.27
2022-08-28T01:30:43.018Z,1.17
2022-08-28T01:33:15.866Z,1.73
2022-08-28T01:35:47.536Z,1.88
2022-08-28T01:38:20.157Z,1.65
2022-08-28T01:40:53.638Z,1.40
2022-08-28T01:43:26.191Z,3.30
2022-08-28T01:45:56.073Z,1.58
2022-08-28T01:48:26.260Z,1.45
2022-08-28T01:50:57.022Z,1.50
2022-08-28T01:53:32.491Z,2.35
2022-08-28T01:56:04.445Z,1.77
2022-08-28T01:58:38.219Z,2.00
2022-08-28T02:03:39.388Z,1.48
2022-08-28T02:06:09.737Z,1.15
2022-08-28T02:08:40.655Z,2.50
2022-08-28T02:11:10.818Z,1.63
2022-08-28T02:13:40.630Z,2.20
2022-08-28T02:16:10.862Z,2.10
2022-08-28T02:18:41.189Z,2.00
2022-08-28T02:21:10.883Z,1.65
2022-08-28T02:23:40.620Z,2.15
2022-08-28T02:26:11.349Z,1.23
2022-08-28T02:28:42.669Z,2.53
2022-08-28T02:31:13.005Z,2.78
2022-08-28T02:33:45.362Z,1.92
2022-08-28T02:36:15.534Z,1.65
2022-08-28T02:38:47.547Z,2.20
2022-08-28T02:41:17.024Z,1.75
2022-08-28T02:43:46.626Z,2.13
2022-08-28T02:46:18.511Z,1.50
2022-08-28T02:48:48.299Z,1.63
2022-08-28T02:51:18.692Z,2.30
2022-08-28T02:53:49.498Z,1.83
2022-08-28T02:56:21.564Z,1.87
2022-08-28T02:58:53.932Z,1.70
2022-08-28T03:01:26.240Z,1.48
2022-08-28T03:03:56.377Z,1.92
2022-08-28T03:06:25.332Z,1.60
2022-08-28T03:08:55.807Z,1.45
2022-08-28T03:11:27.017Z,1.30
2022-08-28T03:13:57.069Z,1.35
2022-08-28T03:16:25.786Z,1.63
2022-08-28T03:18:56.091Z,2.25
2022-08-28T03:21:25.429Z,1.52
2022-08-28T03:23:53.762Z,1.25
2022-08-28T03:26:25.116Z,1.60
2022-08-28T03:28:57.635Z,1.45
2022-08-28T03:31:33.253Z,1.10
2022-08-28T03:34:03.223Z,1.25
2022-08-28T03:36:33.808Z,3.10
2022-08-28T03:39:04.960Z,2.53
2022-08-28T03:41:37.271Z,1.55
2022-08-28T03:44:06.947Z,1.67
2022-08-28T03:46:36.092Z,2.05
2022-08-28T03:49:07.176Z,1.30
2022-08-28T03:51:41.580Z,2.55
2022-08-28T03:54:11.705Z,2.08
2022-08-28T03:56:42.428Z,1.40
2022-08-28T03:59:11.096Z,0.90
2022-08-28T04:01:42.244Z,1.45
2022-08-28T04:04:12.555Z,1.85
2022-08-28T04:06:42.555Z,1.23
2022-08-28T04:09:11.734Z,1.13
2022-08-28T04:11:41.727Z,1.55
2022-08-28T04:14:11.527Z,1.83
2022-08-28T04:16:40.237Z,1.58
2022-08-28T04:19:09.015Z,1.50
2022-08-28T04:21:39.638Z,1.33
2022-08-28T04:24:09.787Z,1.42
2022-08-28T04:26:40.600Z,2.25
2022-08-28T04:29:09.029Z,1.85
2022-08-28T04:31:39.382Z,0.98
2022-08-28T04:34:10.888Z,1.20
2022-08-28T04:36:41.225Z,1.27
2022-08-28T04:39:14.052Z,1.65
2022-08-28T04:41:43.242Z,1.58
2022-08-28T04:44:13.696Z,1.45
2022-08-28T04:46:43.391Z,1.67
2022-08-28T04:49:16.885Z,0.82
2022-08-28T04:51:47.028Z,2.35
2022-08-28T04:54:15.734Z,1.88
2022-08-28T04:56:46.262Z,1.92
2022-08-28T04:59:17.650Z,1.88
2022-08-28T05:01:48.497Z,1.27
2022-08-28T05:04:20.085Z,1.48
2022-08-28T05:06:52.397Z,1.55
2022-08-28T05:09:21.928Z,0.98
2022-08-28T05:11:53.136Z,2.55
2022-08-28T05:14:22.709Z,1.42
2022-08-28T05:16:52.808Z,1.42
2022-08-28T05:19:21.870Z,2.03
2022-08-28T05:21:53.538Z,1.25
2022-08-28T05:24:22.993Z,1.42
2022-08-28T05:26:53.010Z,1.20
2022-08-28T05:29:24.332Z,1.27
2022-08-28T05:31:56.924Z,1.50
2022-08-28T05:34:26.080Z,1.83
2022-08-28T05:36:54.872Z,1.20
2022-08-28T05:39:26.009Z,0.80
2022-08-28T05:41:54.320Z,1.30
2022-08-28T05:44:24.677Z,1.50
2022-08-28T05:46:53.292Z,2.28
2022-08-28T05:49:23.633Z,1.55
2022-08-28T05:51:52.460Z,1.30
2022-08-28T05:54:21.142Z,1.63
2022-08-28T05:56:50.018Z,1.08
2022-08-28T05:59:18.821Z,1.02
2022-08-28T06:01:49.878Z,1.10
2022-08-28T06:04:22.617Z,1.23
2022-08-28T06:06:53.955Z,1.67
2022-08-28T06:09:29.797Z,1.30
2022-08-28T06:14:28.077Z,1.30
2022-08-28T06:16:57.464Z,1.20
2022-08-28T06:19:27.633Z,1.58
2022-08-28T06:21:57.886Z,2.13
2022-08-28T06:24:29.451Z,1.40
2022-08-28T06:26:59.403Z,1.60
2022-08-28T06:29:30.837Z,1.50
2022-08-28T06:32:00.931Z,1.65
2022-08-28T06:34:32.757Z,0.93
2022-08-28T06:37:01.678Z,1.20
2022-08-28T06:39:33.407Z,1.40
2022-08-28T06:42:03.448Z,1.65
2022-08-28T06:44:35.432Z,1.35
2022-08-28T06:47:05.149Z,1.60
2022-08-28T06:49:35.611Z,1.50
2022-08-28T06:52:04.993Z,1.30
2022-08-28T06:54:39.757Z,2.00
2022-08-28T06:57:10.462Z,1.38
2022-08-28T06:59:38.999Z,1.25
2022-08-28T07:02:11.612Z,1.35
2022-08-28T07:04:44.679Z,1.30
2022-08-28T07:07:29.260Z,1.60
2022-08-28T07:10:01.097Z,1.73
2022-08-28T07:12:33.600Z,1.25
2022-08-28T07:15:03.743Z,2.00
2022-08-28T07:17:34.279Z,1.10
2022-08-28T07:20:05.070Z,1.27
2022-08-28T07:22:46.533Z,0.82
2022-08-28T07:25:14.831Z,0.93
2022-08-28T07:27:50.847Z,1.67
2022-08-28T07:30:26.376Z,1.13
2022-08-28T07:33:14.359Z,1.23
2022-08-28T07:35:45.864Z,0.80
2022-08-28T07:38:22.888Z,1.20
2022-08-28T07:40:52.568Z,0.90
2022-08-28T07:43:46.293Z,1.08
2022-08-28T07:46:22.279Z,0.80
2022-08-28T07:48:53.809Z,0.80
2022-08-28T07:51:23.320Z,1.23
2022-08-28T07:53:52.281Z,0.98
2022-08-28T07:56:22.281Z,0.80
2022-08-28T07:58:51.650Z,1.08
2022-08-28T08:01:23.032Z,1.30
2022-08-28T08:03:55.977Z,1.20
2022-08-28T08:06:33.205Z,1.10
2022-08-28T08:09:03.189Z,1.02
2022-08-28T08:11:35.533Z,1.08
2022-08-28T08:14:06.139Z,1.50
2022-08-28T08:16:39.555Z,0.90
2022-08-28T08:19:10.404Z,0.98
2022-08-28T08:21:41.676Z,1.20
2022-08-28T08:24:10.526Z,1.42
2022-08-28T08:26:56.517Z,1.02
2022-08-28T08:29:31.354Z,1.02
2022-08-28T08:32:05.628Z,1.17
2022-08-28T08:34:39.585Z,1.40
2022-08-28T08:37:08.722Z,1.20
2022-08-28T08:39:38.082Z,1.40
2022-08-28T08:42:09.782Z,1.27
2022-08-28T08:44:40.775Z,0.90
2022-08-28T08:47:13.821Z,1.02
2022-08-28T08:49:54.948Z,0.90
2022-08-28T08:52:24.133Z,1.15
2022-08-28T08:55:08.759Z,0.90
2022-08-28T08:57:40.096Z,1.67
2022-08-28T09:00:15.554Z,1.00
2022-08-28T09:03:00.370Z,1.13
2022-08-28T09:05:41.469Z,1.08
2022-08-28T09:08:16.518Z,1.17
2022-08-28T09:10:49.185Z,1.15
2022-08-28T09:13:20.486Z,1.15
2022-08-28T09:15:51.000Z,1.67
2022-08-28T09:18:21.518Z,1.63
2022-08-28T09:20:56.067Z,1.65
2022-08-28T09:23:29.942Z,1.02
2022-08-28T09:26:13.134Z,1.52
2022-08-28T09:31:19.061Z,0.88
2022-08-28T09:33:54.311Z,0.93
2022-08-28T09:36:24.950Z,1.08
2022-08-28T09:39:11.974Z,1.25
2022-08-28T09:42:07.289Z,1.33
2022-08-28T09:44:56.246Z,1.27
2022-08-28T09:47:40.563Z,0.85
2022-08-28T09:50:17.599Z,1.02
2022-08-28T09:52:46.553Z,1.00
2022-08-28T09:55:33.737Z,1.50
2022-08-28T09:58:02.676Z,0.98
2022-08-28T10:00:35.051Z,0.80
2022-08-28T10:03:31.669Z,1.10
2022-08-28T10:08:37.854Z,1.10
2022-08-28T10:11:16.970Z,0.98
2022-08-28T10:13:49.432Z,0.85
2022-08-28T10:16:21.697Z,1.00
2022-08-28T10:18:52.873Z,1.40
2022-08-28T10:21:41.460Z,1.05
2022-08-28T10:24:12.768Z,0.88
2022-08-28T10:26:59.981Z,0.82
2022-08-28T10:29:34.012Z,1.50
2022-08-28T10:34:34.434Z,0.70
2022-08-28T10:37:20.708Z,1.10
2022-08-28T10:39:54.645Z,0.60
2022-08-28T10:42:35.949Z,1.00
2022-08-28T10:45:11.068Z,1.08
2022-08-28T10:47:41.860Z,1.08
2022-08-28T10:50:15.537Z,0.70
2022-08-28T10:52:48.973Z,1.40
2022-08-28T10:55:23.651Z,0.80
2022-08-28T10:57:57.573Z,1.13
2022-08-28T11:00:29.511Z,1.05
2022-08-28T11:03:32.716Z,1.30
2022-08-28T11:06:04.198Z,1.00
2022-08-28T11:08:34.626Z,0.90
2022-08-28T11:11:04.279Z,1.08
2022-08-28T11:13:45.821Z,0.80
2022-08-28T11:16:19.791Z,1.15
2022-08-28T11:19:03.293Z,1.05
2022-08-28T11:21:35.531Z,0.70
2022-08-28T11:24:24.371Z,0.70
2022-08-28T11:26:59.723Z,0.50
2022-08-28T11:29:46.609Z,0.60
2022-08-28T11:32:32.901Z,0.70
2022-08-28T11:35:01.498Z,0.90
2022-08-28T11:37:38.823Z,0.65
2022-08-28T11:40:19.430Z,0.52
2022-08-28T11:42:48.779Z,0.98
2022-08-28T11:45:42.885Z,0.75
2022-08-28T11:48:23.848Z,0.57
2022-08-28T11:51:03.372Z,0.73
2022-08-28T11:53:34.286Z,0.85
2022-08-28T11:56:31.114Z,0.95
2022-08-28T11:59:02.854Z,0.60
2022-08-28T12:01:36.825Z,0.30
2022-08-28T12:04:08.124Z,0.52
2022-08-28T12:06:45.843Z,0.70
2022-08-28T12:09:32.758Z,0.60
2022-08-28T12:12:23.766Z,0.60
2022-08-28T12:15:02.773Z,1.35
2022-08-28T12:17:42.714Z,1.20
2022-08-28T12:20:19.920Z,0.82
2022-08-28T12:22:50.277Z,0.50
2022-08-28T12:25:28.451Z,0.98
2022-08-28T12:27:58.201Z,0.80
2022-08-28T12:30:29.320Z,0.60
2022-08-28T12:33:13.014Z,0.85
2022-08-28T12:35:43.722Z,0.70
2022-08-28T12:38:19.086Z,0.50
2022-08-28T12:40:51.272Z,0.43
2022-08-28T12:43:44.314Z,0.70
2022-08-28T12:46:20.967Z,0.60
2022-08-28T12:48:54.248Z,1.38
2022-08-28T12:53:53.302Z,0.68
2022-08-28T12:56:23.629Z,0.60
2022-08-28T12:58:53.153Z,0.85
2022-08-28T13:01:21.551Z,0.70
2022-08-28T13:03:56.923Z,0.90
2022-08-28T13:06:31.497Z,0.93
2022-08-28T13:09:05.017Z,0.60
2022-08-28T13:11:37.750Z,0.77
2022-08-28T13:14:08.413Z,0.63
2022-08-28T13:16:46.595Z,0.80
2022-08-28T13:19:28.755Z,0.60
2022-08-28T13:22:08.268Z,0.57
2022-08-28T13:24:36.654Z,0.70
2022-08-28T13:27:17.262Z,0.60
2022-08-28T13:29:57.438Z,0.40
2022-08-28T13:32:29.286Z,1.00
2022-08-28T13:35:05.749Z,0.40
2022-08-28T13:37:44.786Z,0.40
2022-08-28T13:40:38.082Z,0.93
2022-08-28T13:43:06.985Z,0.30
2022-08-28T13:45:43.264Z,0.60
2022-08-28T13:48:14.850Z,0.35
2022-08-28T13:50:46.618Z,0.32
2022-08-28T13:53:16.763Z,0.52
2022-08-28T13:55:45.433Z,0.40
2022-08-28T13:58:19.144Z,0.50
2022-08-28T14:00:49.627Z,0.60
2022-08-28T14:06:12.294Z,1.00
2022-08-28T14:08:43.283Z,0.55
2022-08-28T14:11:15.061Z,0.68
2022-08-28T14:13:47.245Z,0.30
2022-08-28T14:16:28.116Z,0.57
2022-08-28T14:19:04.455Z,0.40
2022-08-28T14:21:37.023Z,0.63
2022-08-28T14:24:06.608Z,0.73
2022-08-28T14:26:35.541Z,1.40
2022-08-28T14:29:08.595Z,0.63
2022-08-28T14:31:50.973Z,0.60
2022-08-28T14:34:23.326Z,0.47
2022-08-28T14:36:55.147Z,0.93
2022-08-28T14:39:25.029Z,0.65
2022-08-28T14:41:54.750Z,0.40
2022-08-28T14:44:25.084Z,0.55
2022-08-28T14:46:57.005Z,0.47
2022-08-28T14:49:28.247Z,0.40
2022-08-28T14:51:59.013Z,0.47
2022-08-28T14:54:31.250Z,0.70
2022-08-28T14:57:03.001Z,0.95
2022-08-28T14:59:32.850Z,0.45
2022-08-28T15:02:02.124Z,1.45
2022-08-28T15:04:34.724Z,0.60
2022-08-28T15:07:06.204Z,0.20
2022-08-28T15:09:42.353Z,0.40
2022-08-28T15:14:40.588Z,0.50
2022-08-28T15:17:23.244Z,0.43
2022-08-28T15:20:02.869Z,0.50
2022-08-28T15:22:41.960Z,0.52
2022-08-28T15:25:10.674Z,0.40
2022-08-28T15:27:40.940Z,0.60
2022-08-28T15:30:10.086Z,0.63
2022-08-28T15:32:56.816Z,0.30
2022-08-28T15:35:26.497Z,0.50
2022-08-28T15:37:58.753Z,0.50
2022-08-28T15:40:47.257Z,0.45
2022-08-28T15:43:18.927Z,0.50
2022-08-28T15:45:51.299Z,0.68
2022-08-28T15:48:20.578Z,1.73
2022-08-28T15:50:50.428Z,2.13
2022-08-28T15:53:22.193Z,0.43
2022-08-28T15:56:03.581Z,0.88
2022-08-28T15:58:33.003Z,0.50
2022-08-28T16:01:03.775Z,0.70
2022-08-28T16:03:33.989Z,0.50
2022-08-28T16:06:04.070Z,0.60
2022-08-28T16:08:34.381Z,0.32
2022-08-28T16:11:07.802Z,0.30
2022-08-28T16:13:37.524Z,0.70
2022-08-28T16:16:08.812Z,0.22
2022-08-28T16:18:39.735Z,0.50
2022-08-28T16:21:10.216Z,0.32
2022-08-28T16:23:43.138Z,0.50
2022-08-28T16:26:11.928Z,0.65
2022-08-28T16:28:46.147Z,0.60
2022-08-28T16:34:07.616Z,0.25
2022-08-28T16:35:56.471Z,0.30
2022-08-28T16:36:39.347Z,0.52
2022-08-28T16:39:10.905Z,0.60
2022-08-28T16:41:40.940Z,1.08
2022-08-28T16:44:10.580Z,0.95
2022-08-28T16:46:39.009Z,0.77
2022-08-28T16:49:09.313Z,0.57
2022-08-28T16:51:39.869Z,0.55
2022-08-28T16:54:11.952Z,0.47
2022-08-28T16:56:40.634Z,0.40
2022-08-28T16:59:10.807Z,0.40
2022-08-28T17:01:40.810Z,0.45
2022-08-28T17:04:12.233Z,0.75
2022-08-28T17:06:41.658Z,0.57
2022-08-28T17:09:11.865Z,1.00
2022-08-28T17:11:40.491Z,0.60
2022-08-28T17:14:11.070Z,0.63
2022-08-28T17:16:40.424Z,0.32
2022-08-28T17:19:09.626Z,0.60
2022-08-28T17:21:56.289Z,0.50
2022-08-28T17:24:25.318Z,0.85
2022-08-28T17:26:56.257Z,0.50
2022-08-28T17:29:26.360Z,0.47
2022-08-28T17:31:56.409Z,0.30
2022-08-28T17:34:30.002Z,0.50
2022-08-28T17:37:03.388Z,0.77
2022-08-28T17:39:32.094Z,0.70
2022-08-28T17:42:00.932Z,0.50
2022-08-28T17:44:35.218Z,0.57
2022-08-28T17:47:04.757Z,1.00
2022-08-28T17:49:34.331Z,0.38
2022-08-28T17:52:04.413Z,1.25
2022-08-28T17:54:37.175Z,1.23
2022-08-28T17:57:06.535Z,0.90
2022-08-28T17:59:36.075Z,0.90
2022-08-28T18:02:06.419Z,0.70
2022-08-28T18:04:35.098Z,0.82
2022-08-28T18:07:03.858Z,0.68
2022-08-28T18:09:37.186Z,0.70
2022-08-28T18:12:06.374Z,0.70
2022-08-28T18:14:41.658Z,0.63
2022-08-28T18:17:16.161Z,0.60
2022-08-28T18:19:45.021Z,1.13
2022-08-28T18:22:13.994Z,0.45
2022-08-28T18:24:44.192Z,0.90
2022-08-28T18:27:13.306Z,0.70
2022-08-28T18:29:42.757Z,0.60
2022-08-28T18:32:14.076Z,0.77
2022-08-28T18:34:43.047Z,0.98
2022-08-28T18:37:12.528Z,0.63
2022-08-28T18:39:41.424Z,1.55
2022-08-28T18:42:12.621Z,0.88
2022-08-28T18:44:43.228Z,0.65
2022-08-28T18:47:11.674Z,0.80
2022-08-28T18:49:42.149Z,0.73
2022-08-28T18:52:12.596Z,0.70
2022-08-28T18:54:42.157Z,0.52
2022-08-28T18:57:18.487Z,0.47
2022-08-28T18:59:47.740Z,0.82
2022-08-28T19:02:17.844Z,0.82
2022-08-28T19:04:46.480Z,0.50
2022-08-28T19:07:18.000Z,0.98
2022-08-28T19:09:49.271Z,0.57
2022-08-28T19:12:17.821Z,0.93
2022-08-28T19:14:46.716Z,1.00
2022-08-28T19:17:19.119Z,0.60
2022-08-28T19:19:51.117Z,0.98
2022-08-28T19:22:24.733Z,0.52
2022-08-28T19:25:00.487Z,0.70
2022-08-28T19:27:29.802Z,0.70
2022-08-28T19:29:59.438Z,0.90
2022-08-28T19:32:35.347Z,0.80
2022-08-28T19:35:04.520Z,0.40
2022-08-28T19:37:42.554Z,0.70
2022-08-28T19:40:13.049Z,0.40
2022-08-28T19:42:53.924Z,0.85
2022-08-28T19:45:22.408Z,0.70
2022-08-28T19:47:56.669Z,0.68
2022-08-28T19:50:27.834Z,1.58
2022-08-28T19:52:56.173Z,0.80
2022-08-28T19:55:28.352Z,1.00
2022-08-28T19:57:56.673Z,0.55
2022-08-28T20:00:26.402Z,0.57
2022-08-28T20:03:09.028Z,0.73
2022-08-28T20:05:44.362Z,0.93
2022-08-28T20:08:15.061Z,0.82
2022-08-28T20:10:46.081Z,0.60
2022-08-28T20:13:15.610Z,0.75
2022-08-28T20:15:45.510Z,0.90
2022-08-28T20:18:14.300Z,0.88
2022-08-28T20:20:47.427Z,0.60
2022-08-28T20:23:18.141Z,0.52
2022-08-28T20:25:49.355Z,0.80
2022-08-28T20:28:19.089Z,0.90
2022-08-28T20:30:47.971Z,1.20
2022-08-28T20:33:18.112Z,0.70
2022-08-28T20:35:49.665Z,1.02
2022-08-28T20:38:19.954Z,0.85
2022-08-28T20:40:48.245Z,0.75
2022-08-28T20:43:19.515Z,0.52
2022-08-28T20:48:26.238Z,0.80
2022-08-28T20:50:57.763Z,0.70
2022-08-28T20:53:37.227Z,1.13
2022-08-28T20:56:09.204Z,0.90
2022-08-28T20:58:39.066Z,0.73
2022-08-28T21:01:07.445Z,0.73
2022-08-28T21:03:39.281Z,0.75
2022-08-28T21:06:08.734Z,0.63
2022-08-28T21:08:38.087Z,0.63
2022-08-28T21:11:06.881Z,0.50
2022-08-28T21:13:36.983Z,0.65
2022-08-28T21:16:05.502Z,0.28
2022-08-28T21:18:34.231Z,0.40
2022-08-28T21:21:07.465Z,0.63
2022-08-28T21:23:37.816Z,0.47
2022-08-28T21:26:10.170Z,0.57
2022-08-28T21:28:38.833Z,0.63
2022-08-28T21:31:11.608Z,0.57
2022-08-28T21:33:42.579Z,0.80
2022-08-28T21:36:12.135Z,0.90
2022-08-28T21:38:49.606Z,1.08
2022-08-28T21:41:18.476Z,0.50
2022-08-28T21:43:49.239Z,0.60
2022-08-28T21:46:22.368Z,0.45
2022-08-28T21:48:53.216Z,0.75
2022-08-28T21:51:21.966Z,0.85
2022-08-28T21:53:51.506Z,0.70
2022-08-28T21:56:22.731Z,0.55
2022-08-28T21:58:52.464Z,0.75
2022-08-28T22:01:26.050Z,1.10
2022-08-28T22:03:57.044Z,0.90
2022-08-28T22:06:30.312Z,0.55
2022-08-28T22:09:01.114Z,0.93
2022-08-28T22:11:31.015Z,0.98
2022-08-28T22:13:59.610Z,0.60
2022-08-28T22:16:29.879Z,0.45
2022-08-28T22:18:58.813Z,0.63
2022-08-28T22:21:46.064Z,0.52
2022-08-28T22:24:15.999Z,0.90
2022-08-28T22:26:44.478Z,0.52
2022-08-28T22:29:13.013Z,0.75
2022-08-28T22:31:46.118Z,1.00
2022-08-28T22:34:15.328Z,0.60
2022-08-28T22:36:44.002Z,0.55
2022-08-28T22:39:14.919Z,0.68
2022-08-28T22:41:43.826Z,0.60
2022-08-28T22:44:13.491Z,0.55
2022-08-28T22:46:43.492Z,0.88
2022-08-28T22:49:11.909Z,0.50
2022-08-28T22:51:46.380Z,0.90
2022-08-28T22:54:14.760Z,0.57
2022-08-28T22:56:50.551Z,1.25
2022-08-28T22:59:19.553Z,0.40
2022-08-28T23:01:50.408Z,0.40
2022-08-28T23:04:18.997Z,0.50
2022-08-28T23:06:56.065Z,0.80
2022-08-28T23:09:24.990Z,0.60
2022-08-28T23:11:54.916Z,0.50
2022-08-28T23:14:31.557Z,0.70
2022-08-28T23:17:01.994Z,0.68
2022-08-28T23:19:31.052Z,0.70
2022-08-28T23:22:01.180Z,0.38
2022-08-28T23:24:31.391Z,0.90
2022-08-28T23:27:19.513Z,0.73
2022-08-28T23:29:53.440Z,0.35
2022-08-28T23:32:24.240Z,0.98
2022-08-28T23:34:53.741Z,0.50
2022-08-28T23:37:24.182Z,0.75
2022-08-28T23:39:53.006Z,0.40
2022-08-28T23:42:23.102Z,0.52
2022-08-28T23:44:56.821Z,0.70
2022-08-28T23:47:25.878Z,0.38
2022-08-28T23:49:55.472Z,0.82
2022-08-28T23:52:27.132Z,0.50
2022-08-28T23:54:55.884Z,0.47
2022-08-28T23:57:25.548Z,0.35
2022-08-28T23:59:55.641Z,0.50
